createdAt,value
2023-09-04T00:03:59.259Z,97.77
2023-09-04T00:08:59.261Z,97.77
2023-09-04T00:13:59.250Z,97.77
2023-09-04T00:18:59.263Z,97.76
2023-09-04T00:23:59.253Z,97.77
2023-09-04T00:28:59.268Z,97.77
2023-09-04T00:33:59.269Z,97.76
2023-09-04T00:38:59.271Z,97.76
2023-09-04T00:43:59.337Z,97.75
2023-09-04T00:48:59.262Z,97.75
2023-09-04T00:53:59.277Z,97.74
2023-09-04T00:58:59.265Z,97.74
2023-09-04T01:03:59.280Z,97.74
2023-09-04T01:08:59.282Z,97.74
2023-09-04T01:13:59.284Z,97.74
2023-09-04T01:18:59.285Z,97.74
2023-09-04T01:23:59.274Z,97.75
2023-09-04T01:28:59.289Z,97.74
2023-09-04T01:33:59.277Z,97.74
2023-09-04T01:38:59.292Z,97.74
2023-09-04T01:43:59.294Z,97.74
2023-09-04T01:48:59.283Z,97.73
2023-09-04T01:53:59.297Z,97.73
2023-09-04T01:58:59.286Z,97.74
2023-09-04T02:03:59.301Z,97.74
2023-09-04T02:08:59.302Z,97.74
2023-09-04T02:13:59.304Z,97.75
2023-09-04T02:18:59.305Z,97.75
2023-09-04T02:23:59.295Z,97.74
2023-09-04T02:28:59.308Z,97.73
2023-09-04T02:33:59.297Z,97.73
2023-09-04T02:38:59.312Z,97.72
2023-09-04T02:43:59.314Z,97.72
2023-09-04T02:48:59.303Z,97.72
2023-09-04T02:53:59.316Z,97.72
2023-09-04T02:58:59.305Z,97.72
2023-09-04T03:03:59.321Z,97.74
2023-09-04T03:08:59.332Z,97.73
2023-09-04T03:13:59.324Z,97.73
2023-09-04T03:18:59.324Z,97.72
2023-09-04T03:23:59.314Z,97.72
2023-09-04T03:28:59.329Z,97.72
2023-09-04T03:33:59.317Z,97.72
2023-09-04T03:38:59.332Z,97.73
2023-09-04T03:48:59.335Z,97.74
2023-09-04T03:53:59.337Z,97.75
2023-09-04T03:58:59.325Z,97.75
2023-09-04T04:03:59.340Z,97.76
2023-09-04T04:08:59.328Z,97.76
2023-09-04T04:13:59.343Z,97.76
2023-09-04T04:18:59.344Z,97.76
2023-09-04T04:23:59.334Z,97.75
2023-09-04T04:28:59.348Z,97.76
2023-09-04T04:38:59.350Z,97.76
2023-09-04T04:43:59.353Z,97.76
2023-09-04T04:48:59.354Z,97.76
2023-09-04T04:53:59.356Z,97.76
2023-09-04T04:58:59.345Z,97.76
2023-09-04T05:03:59.359Z,97.76
2023-09-04T05:08:59.346Z,97.76
2023-09-04T05:13:59.426Z,97.76
2023-09-04T05:18:59.363Z,97.76
2023-09-04T05:23:59.365Z,97.76
2023-09-04T05:28:59.367Z,97.76
2023-09-04T05:33:59.356Z,97.76
2023-09-04T05:38:59.369Z,97.76
2023-09-04T05:43:59.358Z,97.76
2023-09-04T05:48:59.373Z,97.75
2023-09-04T05:53:59.375Z,97.75
2023-09-04T05:58:59.364Z,97.75
2023-09-04T06:03:59.378Z,97.75
2023-09-04T06:08:59.366Z,97.75
2023-09-04T06:13:59.382Z,97.74
2023-09-04T06:18:59.383Z,97.74
2023-09-04T06:23:59.385Z,97.73
2023-09-04T06:29:08.647Z,97.73
2023-09-04T06:33:59.376Z,97.72
2023-09-04T06:38:59.389Z,97.72
2023-09-04T06:43:59.379Z,97.72
2023-09-04T06:48:59.394Z,97.72
2023-09-04T06:53:59.395Z,97.72
2023-09-04T06:58:59.385Z,97.72
2023-09-04T07:03:59.400Z,97.72
2023-09-04T07:08:59.388Z,97.72
2023-09-04T07:13:59.403Z,97.72
2023-09-04T07:18:59.406Z,97.72
2023-09-04T07:23:59.408Z,97.72
2023-09-04T07:28:59.433Z,97.72
2023-09-04T07:33:59.399Z,97.73
2023-09-04T07:38:59.415Z,97.73
2023-09-04T07:43:59.401Z,97.73
2023-09-04T07:48:59.466Z,97.7
2023-09-04T07:53:59.419Z,97.7
2023-09-04T07:58:59.423Z,97.71
2023-09-04T08:03:59.427Z,97.71
2023-09-04T08:08:59.416Z,97.71
2023-09-04T08:13:59.430Z,97.72
2023-09-04T08:18:59.421Z,97.71
2023-09-04T08:23:59.437Z,97.71
2023-09-04T08:28:59.440Z,97.71
2023-09-04T08:33:59.430Z,97.72
2023-09-04T08:38:59.445Z,97.72
2023-09-04T08:43:59.435Z,97.71
2023-09-04T08:48:59.452Z,97.71
2023-09-04T08:53:59.455Z,97.7
2023-09-04T08:58:59.458Z,97.7
2023-09-04T09:03:59.461Z,97.7
2023-09-04T09:08:59.451Z,97.7
2023-09-04T09:13:59.466Z,97.7
2023-09-04T09:18:59.456Z,97.69
2023-09-04T09:23:59.497Z,97.69
2023-09-04T09:28:59.475Z,97.69
2023-09-04T09:33:59.479Z,97.69
2023-09-04T09:38:59.481Z,97.68
2023-09-04T09:43:59.472Z,97.68
2023-09-04T09:48:59.488Z,97.67
2023-09-04T09:53:59.476Z,97.67
2023-09-04T09:58:59.494Z,97.67
2023-09-04T10:03:59.496Z,97.66
2023-09-04T10:08:59.487Z,97.66
2023-09-04T10:13:59.503Z,97.66
2023-09-04T10:18:59.493Z,97.66
2023-09-04T10:23:59.509Z,97.66
2023-09-04T10:28:59.512Z,97.66
2023-09-04T10:33:59.516Z,97.64
2023-09-04T10:38:59.519Z,97.64
2023-09-04T10:43:59.509Z,97.63
2023-09-04T10:48:59.524Z,97.63
2023-09-04T10:53:59.513Z,97.62
2023-09-04T10:58:59.531Z,97.61
2023-09-04T11:03:59.534Z,97.61
2023-09-04T11:08:59.524Z,97.61
2023-09-04T11:13:59.540Z,97.6
2023-09-04T11:18:59.528Z,97.59
2023-09-04T11:23:59.545Z,97.59
2023-09-04T11:28:59.549Z,97.59
2023-09-04T11:33:59.553Z,97.59
2023-09-04T11:38:59.555Z,97.59
2023-09-04T11:43:59.546Z,97.59
2023-09-04T11:48:59.588Z,97.58
2023-09-04T11:53:59.551Z,97.58
2023-09-04T11:58:59.568Z,97.58
2023-09-04T12:03:59.571Z,97.57
2023-09-04T12:08:59.574Z,97.57
2023-09-04T12:13:59.577Z,97.56
2023-09-04T12:18:59.567Z,97.56
2023-09-04T12:23:59.583Z,97.56
2023-09-04T12:28:59.573Z,97.56
2023-09-04T12:33:59.589Z,97.54
2023-09-04T12:38:59.591Z,97.52
2023-09-04T12:43:59.583Z,97.52
2023-09-04T12:48:59.599Z,97.51
2023-09-04T12:53:59.588Z,97.51
2023-09-04T12:58:59.605Z,97.5
2023-09-04T13:03:59.608Z,97.5
2023-09-04T13:08:59.611Z,97.5
2023-09-04T13:13:59.614Z,97.49
2023-09-04T13:18:59.604Z,97.48
2023-09-04T13:23:59.670Z,97.47
2023-09-04T13:28:59.610Z,97.48
2023-09-04T13:33:59.625Z,97.48
2023-09-04T13:38:59.628Z,97.47
2023-09-04T13:43:59.632Z,97.47
2023-09-04T13:48:59.636Z,97.46
2023-09-04T13:53:59.626Z,97.46
2023-09-04T13:58:59.641Z,97.46
2023-09-04T14:03:59.631Z,97.46
2023-09-04T14:09:08.907Z,97.45
2023-09-04T14:13:59.651Z,97.44
2023-09-04T14:18:59.641Z,97.43
2023-09-04T14:23:59.657Z,97.44
2023-09-04T14:28:59.647Z,97.44
2023-09-04T14:33:59.663Z,97.43
2023-09-04T14:38:59.666Z,97.42
2023-09-04T14:43:59.670Z,97.43
2023-09-04T14:48:59.673Z,97.43
2023-09-04T14:53:59.663Z,97.43
2023-09-04T14:58:59.679Z,97.44
2023-09-04T15:03:59.668Z,97.44
2023-09-04T15:08:59.685Z,97.43
2023-09-04T15:13:59.688Z,97.43
2023-09-04T15:18:59.678Z,97.43
2023-09-04T15:23:59.694Z,97.42
2023-09-04T15:28:59.683Z,97.42
2023-09-04T15:33:59.698Z,97.42
2023-09-04T15:38:59.688Z,97.42
2023-09-04T15:43:59.705Z,97.41
2023-09-04T15:48:59.708Z,97.41
2023-09-04T15:53:59.698Z,97.41
2023-09-04T15:58:59.716Z,97.41
2023-09-04T16:03:59.703Z,97.4
2023-09-04T16:08:59.719Z,97.4
2023-09-04T16:13:59.722Z,97.4
2023-09-04T16:18:59.725Z,97.4
2023-09-04T16:23:59.729Z,97.39
2023-09-04T16:28:59.718Z,97.39
2023-09-04T16:33:59.732Z,97.39
2023-09-04T16:38:59.723Z,97.38
2023-09-04T16:43:59.739Z,97.39
2023-09-04T16:48:59.742Z,97.4
2023-09-04T16:53:59.732Z,97.4
2023-09-04T16:58:59.747Z,97.41
2023-09-04T17:03:59.736Z,97.41
2023-09-04T17:08:59.752Z,97.41
2023-09-04T17:13:59.755Z,97.41
2023-09-04T17:18:59.758Z,97.4
2023-09-04T17:23:59.761Z,97.4
2023-09-04T17:28:59.750Z,97.41
2023-09-04T17:33:59.808Z,97.41
2023-09-04T17:38:59.755Z,97.41
2023-09-04T17:43:59.770Z,97.41
2023-09-04T17:48:59.773Z,97.41
2023-09-04T17:53:59.824Z,97.41
2023-09-04T17:58:59.777Z,97.41
2023-09-04T18:03:59.768Z,97.41
2023-09-04T18:08:59.783Z,97.41
2023-09-04T18:13:59.772Z,97.42
2023-09-04T18:18:59.788Z,97.43
2023-09-04T18:23:59.791Z,97.42
2023-09-04T18:28:59.781Z,97.42
2023-09-04T18:33:59.796Z,97.42
2023-09-04T18:38:59.785Z,97.42
2023-09-04T18:43:59.800Z,97.42
2023-09-04T18:48:59.802Z,97.42
2023-09-04T18:53:59.805Z,97.42
2023-09-04T18:58:59.808Z,97.43
2023-09-04T19:03:59.797Z,97.43
2023-09-04T19:08:59.812Z,97.43
2023-09-04T19:13:59.801Z,97.42
2023-09-04T19:18:59.817Z,97.42
2023-09-04T19:23:59.819Z,97.42
2023-09-04T19:28:59.809Z,97.43
2023-09-04T19:33:59.824Z,97.43
2023-09-04T19:38:59.811Z,97.43
2023-09-04T19:43:59.828Z,97.43
2023-09-04T19:48:59.830Z,97.42
2023-09-04T19:53:59.833Z,97.42
2023-09-04T19:58:59.883Z,97.42
2023-09-04T20:03:59.825Z,97.42
2023-09-04T20:08:59.840Z,97.41
2023-09-04T20:13:59.827Z,97.42
2023-09-04T20:18:59.843Z,97.42
2023-09-04T20:23:59.846Z,97.41
2023-09-04T20:28:59.849Z,97.41
2023-09-04T20:33:59.851Z,97.42
2023-09-04T20:38:59.840Z,97.43
2023-09-04T20:43:59.855Z,97.43
2023-09-04T20:48:59.844Z,97.42
2023-09-04T20:53:59.860Z,97.42
2023-09-04T20:58:59.861Z,97.42
2023-09-04T21:03:59.851Z,97.42
2023-09-04T21:08:59.867Z,97.41
2023-09-04T21:13:59.855Z,97.4
2023-09-04T21:18:59.871Z,97.4
2023-09-04T21:23:59.872Z,97.39
2023-09-04T21:28:59.875Z,97.39
2023-09-04T21:33:59.877Z,97.39
2023-09-04T21:38:59.867Z,97.39
2023-09-04T21:43:59.922Z,97.39
2023-09-04T21:49:09.128Z,97.39
2023-09-04T21:53:59.886Z,97.39
2023-09-04T21:58:59.887Z,97.39
2023-09-04T22:03:59.877Z,97.39
2023-09-04T22:08:59.891Z,97.39
2023-09-04T22:13:59.881Z,97.39
2023-09-04T22:18:59.895Z,97.38
2023-09-04T22:23:59.885Z,97.37
2023-09-04T22:28:59.900Z,97.37
2023-09-04T22:33:59.902Z,97.38
2023-09-04T22:38:59.892Z,97.38
2023-09-04T22:43:59.907Z,97.38
2023-09-04T22:48:59.895Z,97.37
2023-09-04T22:53:59.911Z,97.38
2023-09-04T22:58:59.912Z,97.37
2023-09-04T23:03:59.915Z,97.38
2023-09-04T23:08:59.917Z,97.37
2023-09-04T23:13:59.906Z,97.37
2023-09-04T23:18:59.921Z,97.36
2023-09-04T23:23:59.909Z,97.36
2023-09-04T23:28:59.925Z,97.36
2023-09-04T23:33:59.926Z,97.35
2023-09-04T23:38:59.916Z,97.35
2023-09-04T23:43:59.931Z,97.34
2023-09-04T23:48:59.920Z,97.35
2023-09-04T23:53:59.935Z,97.35
2023-09-04T23:58:59.936Z,97.35
